createdAt,value
2023-03-17T00:00:57.747Z,78.30
2023-03-17T00:06:00.365Z,78.09
2023-03-17T00:11:02.730Z,78.37
2023-03-17T00:16:07.687Z,78.12
2023-03-17T00:21:13.404Z,78.34
2023-03-17T00:26:16.386Z,77.87
2023-03-17T00:31:21.399Z,77.92
2023-03-17T00:36:26.624Z,77.92
2023-03-17T00:41:30.007Z,77.97
2023-03-17T00:46:38.778Z,77.91
2023-03-17T00:51:41.077Z,78.07
2023-03-17T00:56:44.561Z,78.04
2023-03-17T01:01:48.182Z,77.99
2023-03-17T01:06:51.449Z,77.85
2023-03-17T01:11:55.885Z,78.00
2023-03-17T01:16:58.448Z,77.74
2023-03-17T01:22:00.646Z,77.87
2023-03-17T01:27:03.247Z,77.71
2023-03-17T01:32:06.018Z,77.60
2023-03-17T01:37:08.515Z,77.58
2023-03-17T01:42:10.746Z,77.44
2023-03-17T01:47:13.007Z,77.54
2023-03-17T01:52:20.981Z,77.44
2023-03-17T01:57:38.308Z,77.32
2023-03-17T02:02:44.065Z,77.38
2023-03-17T02:07:46.642Z,77.32
2023-03-17T02:12:52.671Z,76.92
2023-03-17T02:17:54.871Z,76.96
2023-03-17T02:22:57.514Z,76.60
2023-03-17T02:28:03.086Z,76.40
2023-03-17T02:33:06.207Z,76.20
2023-03-17T02:38:08.425Z,76.26
2023-03-17T02:43:10.761Z,76.02
2023-03-17T02:48:13.353Z,76.10
2023-03-17T02:53:15.626Z,75.97
2023-03-17T02:58:17.719Z,75.85
2023-03-17T03:03:19.931Z,75.37
2023-03-17T03:08:22.336Z,75.40
2023-03-17T03:13:24.708Z,75.08
2023-03-17T03:18:27.191Z,75.09
2023-03-17T03:23:29.352Z,75.10
2023-03-17T03:28:32.101Z,74.90
2023-03-17T03:33:34.744Z,74.58
2023-03-17T03:38:37.067Z,74.45
2023-03-17T03:43:39.273Z,74.36
2023-03-17T03:48:41.604Z,74.13
2023-03-17T03:53:43.880Z,74.09
2023-03-17T03:58:46.087Z,74.08
2023-03-17T04:03:48.858Z,73.93
2023-03-17T04:08:51.170Z,73.75
2023-03-17T04:13:53.434Z,73.43
2023-03-17T04:18:55.780Z,73.46
2023-03-17T04:23:57.979Z,73.24
2023-03-17T04:29:00.376Z,72.88
2023-03-17T04:34:02.708Z,72.55
2023-03-17T04:39:05.013Z,72.55
2023-03-17T04:44:07.875Z,72.19
2023-03-17T04:49:10.136Z,72.08
2023-03-17T04:54:12.439Z,71.64
2023-03-17T04:59:14.988Z,71.62
2023-03-17T05:04:30.824Z,71.53
2023-03-17T05:09:34.273Z,71.56
2023-03-17T05:14:37.300Z,71.19
2023-03-17T05:19:39.801Z,70.98
2023-03-17T05:24:42.292Z,70.89
2023-03-17T05:29:44.601Z,70.60
2023-03-17T05:34:47.468Z,70.17
2023-03-17T05:39:49.640Z,69.93
2023-03-17T05:44:51.882Z,69.72
2023-03-17T05:49:54.271Z,69.28
2023-03-17T05:54:56.445Z,68.80
2023-03-17T05:59:58.743Z,68.79
2023-03-17T06:05:01.223Z,68.51
2023-03-17T06:10:05.435Z,68.16
2023-03-17T06:15:09.909Z,67.47
2023-03-17T06:20:13.246Z,67.06
2023-03-17T06:25:15.737Z,66.76
2023-03-17T06:30:18.130Z,66.25
2023-03-17T06:35:20.490Z,65.90
2023-03-17T06:40:22.803Z,64.97
2023-03-17T06:45:25.219Z,64.84
2023-03-17T06:50:27.584Z,64.83
2023-03-17T06:55:30.126Z,64.19
2023-03-17T07:00:33.216Z,63.83
2023-03-17T07:05:35.823Z,63.14
2023-03-17T07:10:38.090Z,62.42
2023-03-17T07:15:45.266Z,61.54
2023-03-17T07:20:48.088Z,62.31
2023-03-17T07:25:50.945Z,61.63
2023-03-17T07:30:53.248Z,61.57
2023-03-17T07:35:55.600Z,60.89
2023-03-17T07:40:58.172Z,60.83
2023-03-17T07:46:00.421Z,60.22
2023-03-17T07:51:02.779Z,59.33
2023-03-17T07:56:05.417Z,59.24
2023-03-17T08:01:08.693Z,58.88
2023-03-17T08:06:11.612Z,58.40
2023-03-17T08:11:14.351Z,58.03
2023-03-17T08:16:17.670Z,58.11
2023-03-17T08:21:20.522Z,58.23
2023-03-17T08:26:23.404Z,58.00
2023-03-17T08:31:25.666Z,57.10
2023-03-17T08:36:28.683Z,56.91
2023-03-17T08:41:31.234Z,55.89
2023-03-17T08:46:33.651Z,55.41
2023-03-17T08:51:37.594Z,54.74
2023-03-17T08:56:40.674Z,53.44
2023-03-17T09:01:45.187Z,52.61
2023-03-17T09:07:02.261Z,52.16
2023-03-17T09:12:06.834Z,52.75
2023-03-17T09:17:09.806Z,52.10
2023-03-17T09:22:16.848Z,49.58
2023-03-17T09:27:19.202Z,50.45
2023-03-17T09:32:21.921Z,50.43
2023-03-17T09:37:24.429Z,50.78
2023-03-17T09:42:41.889Z,45.77
2023-03-17T09:48:06.235Z,46.91
2023-03-17T09:53:21.214Z,46.11
2023-03-17T09:58:30.199Z,44.68
2023-03-17T10:03:34.544Z,47.78
2023-03-17T10:08:38.130Z,46.56
2023-03-17T10:14:00.280Z,44.31
2023-03-17T10:19:40.946Z,42.47
2023-03-17T10:24:44.417Z,49.69
2023-03-17T10:29:48.446Z,45.75
2023-03-17T10:34:50.915Z,44.78
2023-03-17T10:39:56.356Z,42.24
2023-03-17T10:45:14.781Z,40.18
2023-03-17T10:50:23.900Z,40.86
2023-03-17T10:55:29.592Z,41.22
2023-03-17T11:00:35.556Z,40.94
2023-03-17T11:05:40.049Z,41.07
2023-03-17T11:10:42.757Z,41.21
2023-03-17T11:15:52.296Z,39.43
2023-03-17T11:21:02.429Z,38.85
2023-03-17T11:26:29.734Z,39.94
2023-03-17T11:32:02.915Z,38.79
2023-03-17T11:37:49.700Z,38.62
2023-03-17T11:43:20.416Z,39.68
2023-03-17T11:48:41.382Z,39.57
2023-03-17T11:54:02.377Z,38.69
2023-03-17T11:59:12.005Z,39.65
2023-03-17T12:04:23.277Z,44.36
2023-03-17T12:09:34.849Z,40.30
2023-03-17T12:14:48.804Z,39.15
2023-03-17T12:19:59.224Z,40.86
2023-03-17T12:25:29.002Z,38.84
2023-03-17T12:30:41.330Z,38.82
2023-03-17T12:35:43.610Z,40.52
2023-03-17T12:40:58.762Z,39.97
2023-03-17T12:46:40.642Z,39.03
2023-03-17T12:51:46.164Z,40.26
2023-03-17T12:56:49.941Z,39.29
2023-03-17T13:02:24.641Z,37.59
2023-03-17T13:07:51.997Z,38.16
2023-03-17T13:12:54.465Z,39.82
2023-03-17T13:18:20.485Z,38.37
2023-03-17T13:23:35.874Z,38.78
2023-03-17T13:28:38.435Z,40.09
2023-03-17T13:33:46.768Z,38.96
2023-03-17T13:39:19.308Z,39.01
2023-03-17T13:44:39.922Z,38.76
2023-03-17T13:49:42.257Z,43.08
2023-03-17T13:54:50.304Z,39.22
2023-03-17T14:00:07.816Z,40.12
2023-03-17T14:05:38.189Z,39.95
2023-03-17T14:10:40.558Z,40.96
2023-03-17T14:15:51.640Z,38.85
2023-03-17T14:20:55.913Z,39.34
2023-03-17T14:26:00.166Z,39.49
2023-03-17T14:31:07.317Z,39.20
2023-03-17T14:36:14.355Z,39.21
2023-03-17T14:41:22.897Z,38.68
2023-03-17T14:46:32.501Z,38.71
2023-03-17T14:51:40.644Z,42.52
2023-03-17T14:57:00.173Z,37.87
2023-03-17T15:02:16.622Z,40.25
2023-03-17T15:07:48.391Z,40.43
2023-03-17T15:13:00.677Z,40.00
2023-03-17T15:18:14.285Z,39.83
2023-03-17T15:23:22.455Z,40.26
2023-03-17T15:28:31.842Z,40.79
2023-03-17T15:33:38.883Z,40.69
2023-03-17T15:38:41.501Z,41.84
2023-03-17T15:43:43.834Z,41.80
2023-03-17T15:48:46.929Z,41.24
2023-03-17T15:53:49.397Z,41.89
2023-03-17T15:58:52.630Z,42.34
2023-03-17T16:03:55.126Z,41.89
2023-03-17T16:08:57.569Z,42.56
2023-03-17T16:14:00.344Z,42.87
2023-03-17T16:19:04.988Z,42.99
2023-03-17T16:24:15.178Z,42.96
2023-03-17T16:29:18.697Z,43.25
2023-03-17T16:34:23.729Z,43.84
2023-03-17T16:39:26.615Z,43.63
2023-03-17T16:44:28.979Z,44.29
2023-03-17T16:49:31.327Z,44.33
2023-03-17T16:54:34.864Z,44.67
2023-03-17T16:59:37.575Z,44.75
2023-03-17T17:04:41.339Z,44.68
2023-03-17T17:09:43.655Z,45.43
2023-03-17T17:14:46.473Z,45.38
2023-03-17T17:19:49.025Z,45.93
2023-03-17T17:24:51.510Z,46.13
2023-03-17T17:29:53.940Z,46.57
2023-03-17T17:34:56.401Z,46.85
2023-03-17T17:39:59.060Z,46.91
2023-03-17T17:45:01.866Z,47.29
2023-03-17T17:50:07.230Z,47.45
2023-03-17T17:55:09.864Z,48.06
2023-03-17T18:00:17.823Z,47.82
2023-03-17T18:05:20.460Z,47.67
2023-03-17T18:10:26.031Z,46.83
2023-03-17T18:15:28.917Z,47.85
2023-03-17T18:20:34.338Z,47.94
2023-03-17T18:25:37.646Z,48.14
2023-03-17T18:30:40.487Z,48.51
2023-03-17T18:35:43.664Z,48.64
2023-03-17T18:40:46.680Z,48.30
2023-03-17T18:45:51.488Z,48.72
2023-03-17T18:50:54.154Z,48.94
2023-03-17T18:55:57.678Z,49.04
2023-03-17T19:01:03.005Z,49.40
2023-03-17T19:06:15.948Z,49.98
2023-03-17T19:11:21.605Z,49.79
2023-03-17T19:16:29.120Z,49.95
2023-03-17T19:21:31.763Z,50.05
2023-03-17T19:26:34.362Z,50.80
2023-03-17T19:31:41.945Z,51.17
2023-03-17T19:36:46.728Z,51.39
2023-03-17T19:41:52.984Z,51.84
2023-03-17T19:46:55.418Z,51.88
2023-03-17T19:51:58.372Z,52.21
2023-03-17T19:57:00.814Z,52.14
2023-03-17T20:02:03.081Z,52.24
2023-03-17T20:07:05.577Z,52.38
2023-03-17T20:12:08.288Z,52.83
2023-03-17T20:17:10.594Z,52.96
2023-03-17T20:22:12.910Z,53.33
2023-03-17T20:27:16.158Z,53.36
2023-03-17T20:32:18.592Z,53.18
2023-03-17T20:37:20.882Z,53.12
2023-03-17T20:42:23.886Z,53.23
2023-03-17T20:47:26.923Z,53.94
2023-03-17T20:52:30.295Z,53.85
2023-03-17T20:57:33.510Z,53.89
2023-03-17T21:02:35.877Z,54.21
2023-03-17T21:07:38.409Z,54.55
2023-03-17T21:12:40.863Z,54.96
2023-03-17T21:17:43.404Z,54.83
2023-03-17T21:22:46.289Z,54.69
2023-03-17T21:27:49.054Z,54.79
2023-03-17T21:32:51.372Z,55.01
2023-03-17T21:37:53.740Z,54.79
2023-03-17T21:42:56.318Z,55.08
2023-03-17T21:47:58.684Z,54.84
2023-03-17T21:53:01.027Z,54.78
2023-03-17T21:58:03.315Z,55.07
2023-03-17T22:03:06.421Z,55.24
2023-03-17T22:08:08.846Z,55.31
2023-03-17T22:13:11.559Z,55.35
2023-03-17T22:18:14.369Z,55.61
2023-03-17T22:23:16.788Z,55.82
2023-03-17T22:28:19.632Z,56.05
2023-03-17T22:33:22.008Z,56.46
2023-03-17T22:38:24.853Z,56.51
2023-03-17T22:43:27.900Z,56.65
2023-03-17T22:48:32.573Z,56.66
2023-03-17T22:53:35.705Z,56.99
2023-03-17T22:58:38.498Z,56.97
2023-03-17T23:03:41.209Z,56.97
2023-03-17T23:08:44.405Z,56.87
2023-03-17T23:13:47.611Z,56.70
2023-03-17T23:18:50.061Z,56.81
2023-03-17T23:23:52.554Z,57.05
2023-03-17T23:28:54.805Z,57.17
2023-03-17T23:33:56.969Z,57.44
2023-03-17T23:38:59.750Z,57.67
2023-03-17T23:44:02.077Z,57.61
2023-03-17T23:49:04.942Z,57.56
2023-03-17T23:54:08.014Z,57.38
2023-03-17T23:59:11.144Z,57.59
